ED1ZAE-3
43.27.99N 005.40.54W
IN73DL aprs.fi
zuletzt gehoert:
2022-01-28T12:08:42Z
zuerst gehoert:
2020-02-10T14:57:29Z

APRS Gijón/Xixón [IN73DL], 0 Stunde(n), ED1ZAE-3 [13:22:08, 0s].
ED1ZAS 43.27.52N 005.40.17WIN73DL 0.227km 121°ESE11:33:04ZRD985 438.2250/430.6250 CC1
ED1ZAE 43.27.99N 005.40.54WIN73DL 0.794km 338°NNW12:08:42Z400 M. PICO SAN MARTIN (GIJON) 13.3V,15.3C(3ED1ZAE-3)
EA1DZR 43.31.47N 005.40.00WIN73DM 7.194km N12:02:49ZMMDVM DVMega 431.1000/431.1000 CC1
EB1GEM 43.30.00N 005.36.07WIN73EM 7.263km 52°NE12:12:39ZWX3in1Plus2.0 U=13.3V,T=??.?C/??.?F(3EB1GEM-3)
EA1IEJ 43.31.81N 005.40.25WIN73DM 7.831km N11:33:58ZMMDVM MMDVM HS Hat 438.8500/438.8500 CC6
EB1TK 43.32.22N 005.42.32WIN73DM 9.000km 343°NNW12:05:27ZWind 085°/016kn, Böen bis 025kn, Temp 9.44c, Regen 0.0mm, letzte 24h 0.0mm, seit 0h 0.0mm, Baro 1039.5h, Hum: 77%(3EB1TK-13)
LEEL 43.32.98N 005.41.71WIN73DN 10.155km 349°N11:32:51ZHelipuerto de El Musel: LEAS 281030Z 13007KT 080V160 9999 OVC022 08/04 Q1037 NOSIG=
EA1ABW 43.24.77N 005.47.77WIN73CJ 11.306km 243°WSW11:33:27ZMMDVM MMDVM HS Hat 439.8250/439.8250 CC1
EA1FLQ 43.22.00N 005.36.35WIN73EI 11.658km 153°SSE12:02:29ZMMDVM DVMega 439.9750/439.9750 CC1
EC1AE 43.22.95N 005.47.06WIN73CJ 12.487km 227°SW12:04:24Z`EC1AE - FM & Digital C4FM._%(3EC1AE-9)
LEMR 43.25.83N 005.49.60WIN73CK 12.913km 255°WSW11:32:51ZAerodromo de la Morgal: LEAS 281030Z 13007KT 080V160 9999 OVC022 08/04 Q1037 NOSIG=
LEGM 43.26.15N 005.49.84WIN73CK 13.074km 258°WSW11:32:49ZHelipuerto de La Morgal: LEAS 281030Z 13007KT 080V160 9999 OVC022 08/04 Q1037 NOSIG=
LEHU 43.22.63N 005.49.57WIN73CJ 15.485km 234°SW11:32:50ZHelipuerto del HUCA: LEAS 281030Z 13007KT 080V160 9999 OVC022 08/04 Q1037 NOSIG=
33D00 43.21.63N 005.51.13WIN73BI 18.268km 233°SW12:01:54Z33-D-00 Protección Civil REMER / Delegación del Gobierno en Asturias
EA1JAY 43.21.54N 005.51.34WIN73BI 18.605km 233°SW11:32:53Z434.525MHz Nodo TETRA DMO(3EA1JAY-4)
ED1ZAU 43.23.04N 005.52.75WIN73BJ 18.744km 243°WSW11:32:59ZRD625 438.5000/430.9000 CC1
EA1FHR 43.28.72N 005.26.41WIN73GL 18.814km 84°E11:34:30ZMMDVM MMDVM HS Hat 439.1500/439.1500 CC1
EB1JAJ 43.21.72N 005.51.82WIN73BI 18.919km 235°SW12:02:28ZMMDVM MMDVM HS Dual Hat 438.0250/431.0250 CC1
EA1HWD 43.28.96N 005.26.30WIN73GL 19.028km 82°E12:02:31Z144.575FM Local frecuency VHF. 434.2500/434.2500 CC1
EA1HJA 43.21.47N 005.52.09WIN73BI 19.484km 235°SW12:01:09Z IN73FL WX3IN1+ 2.0 - V=13.2V,TX TEMP=24.1C(3EA1HJA-2)
EA1HJA@URE.ES(2EA1HJA)
EA1L 43.20.37N 005.51.13WIN73BI 19.757km 227°SW12:11:13Zea1l@ure.es V=13.5V,T=??.?C
Wind 079°/006kn, Böen bis 010kn, Temp 8.33c, Regen 0.0mm, letzte 24h 0.0mm, seit 0h 0.0mm, Baro 1034.4h, Hum: 74%(2EA1L-13)
EA1HWX 43.19.20N 005.50.74WIN73BH 20.953km 222°SW12:02:57ZMMDVM DMO 435.5000/435.5000 CC1
EA1AHA 43.32.72N 005.54.38WIN73BN 21.153km 297°WNW12:06:25ZWind 135°/011kn, Böen bis 015kn, Temp 10.56c, Regen 0.0mm, letzte 24h 0.0mm, seit 0h 0.0mm, Baro 1038.3h, Hum: 62%(3EA1AHA-13)
EA1AQK 43.16.49N 005.35.99WIN73EG 21.366km 164°SSE11:33:27ZMMDVM MMDVM HS Hat 439.8500/439.8500 CC1
ED1ZAY 43.29.47N 005.56.54WIN73AL 22.096km 279°W11:33:01ZRD625 438.3000/430.7000 CC1
EB1DGC 43.12.60N 005.45.59WIN73CF 28.679km 194°SSW11:33:55ZMMDVM MMDVM HS Hat 433.4500/433.4500 CC1
EA1JBL 43.12.28N 005.47.42WIN73CE 29.931km 199°SSW12:02:35ZMMDVM DVMega 435.3000/435.3000 CC1
EA1JBE 43.30.90N 005.16.15WIN73IM 33.071km 79°E11:32:50ZDario(3EA1JBE-7)
Dario(2EA1JBE-13)
MAIN QTH http://qrz.com/db/ea1jbe(2EA1JBE-1)
EA1RCG 43.09.45N 005.49.78WIN73CD 35.944km 201°SSW11:34:14ZGRUPO RADIO GALENA (GRG) 430.4500/430.4500 CC1
ED1ZAD 43.07.90N 005.38.52WIN73ED 36.554km 176°S12:14:49ZED1ZAD-3 APRS Digi/Igate(3ED1ZAD-3)
ED1ZBF 43.19.16N 005.06.74WIN73KH 47.828km 109°ESE11:33:02ZRD625 438.4750/430.8750 CC1

aprs.pl 5.0.011w DL3EL © 2006-2021 [1506732]